createdAt,value
2023-05-12T00:00:31.407Z,13.2
2023-05-12T00:01:38.303Z,13.2
2023-05-12T00:02:45.207Z,13.2
2023-05-12T00:03:52.111Z,13.1
2023-05-12T00:04:58.939Z,13.1
2023-05-12T00:06:05.735Z,13
2023-05-12T00:07:12.665Z,13
2023-05-12T00:08:19.556Z,13
2023-05-12T00:09:26.379Z,13
2023-05-12T00:10:33.219Z,12.9
2023-05-12T00:11:40.015Z,13
2023-05-12T00:12:46.958Z,12.9
2023-05-12T00:13:53.824Z,12.9
2023-05-12T00:15:00.608Z,12.9
2023-05-12T00:16:07.745Z,12.9
2023-05-12T00:17:14.575Z,12.8
2023-05-12T00:18:21.514Z,12.9
2023-05-12T00:19:28.375Z,12.8
2023-05-12T00:20:35.203Z,12.8
2023-05-12T00:21:42.109Z,12.8
2023-05-12T00:22:48.949Z,12.8
2023-05-12T00:23:55.788Z,12.8
2023-05-12T00:25:02.648Z,12.8
2023-05-12T00:26:09.538Z,12.7
2023-05-12T00:27:16.394Z,12.7
2023-05-12T00:28:23.271Z,12.7
2023-05-12T00:29:30.091Z,12.6
2023-05-12T00:30:37.010Z,12.6
2023-05-12T00:31:43.860Z,12.6
2023-05-12T00:32:50.710Z,12.6
2023-05-12T00:33:57.493Z,12.6
2023-05-12T00:35:04.320Z,12.5
2023-05-12T00:36:11.429Z,12.6
2023-05-12T00:37:18.266Z,12.5
2023-05-12T00:38:25.138Z,12.5
2023-05-12T00:39:32.038Z,12.5
2023-05-12T00:40:38.851Z,12.5
2023-05-12T00:41:45.666Z,12.5
2023-05-12T00:42:52.488Z,12.5
2023-05-12T00:43:59.433Z,12.5
2023-05-12T00:45:06.258Z,12.5
2023-05-12T00:46:13.499Z,12.4
2023-05-12T00:47:20.258Z,12.4
2023-05-12T00:48:27.066Z,12.4
2023-05-12T00:49:33.995Z,12.4
2023-05-12T00:50:40.769Z,12.4
2023-05-12T00:51:47.593Z,12.4
2023-05-12T00:52:54.461Z,12.3
2023-05-12T00:54:01.288Z,12.3
2023-05-12T00:55:08.222Z,12.3
2023-05-12T00:56:15.038Z,12.3
2023-05-12T00:57:21.878Z,12.3
2023-05-12T00:58:28.775Z,12.3
2023-05-12T00:59:35.788Z,12.2
2023-05-12T01:00:42.711Z,12.3
2023-05-12T01:01:49.531Z,12.3
2023-05-12T01:02:56.544Z,12.3
2023-05-12T01:04:03.311Z,12.3
2023-05-12T01:05:10.276Z,12.3
2023-05-12T01:06:17.079Z,12.3
2023-05-12T01:07:34.061Z,12.2
2023-05-12T01:08:40.971Z,12.2
2023-05-12T01:09:47.859Z,12.2
2023-05-12T01:10:57.379Z,12.2
2023-05-12T01:12:04.251Z,12.2
2023-05-12T01:13:30.732Z,12.2
2023-05-12T01:14:37.633Z,12.2
2023-05-12T01:15:44.626Z,12.1
2023-05-12T01:17:54.817Z,12.1
2023-05-12T01:19:01.694Z,12
2023-05-12T01:20:38.119Z,12
2023-05-12T01:21:47.691Z,12
2023-05-12T01:22:54.499Z,12
2023-05-12T01:24:01.390Z,12
2023-05-12T01:25:08.199Z,12
2023-05-12T01:26:14.977Z,11.9
2023-05-12T01:27:21.817Z,11.9
2023-05-12T01:28:31.388Z,11.9
2023-05-12T01:29:38.303Z,11.9
2023-05-12T01:30:45.197Z,11.9
2023-05-12T01:31:52.016Z,11.8
2023-05-12T01:32:58.808Z,11.8
2023-05-12T01:34:05.671Z,11.8
2023-05-12T01:35:12.563Z,11.9
2023-05-12T01:36:19.371Z,11.8
2023-05-12T01:37:26.317Z,11.8
2023-05-12T01:38:33.086Z,11.8
2023-05-12T01:39:39.934Z,11.8
2023-05-12T01:40:46.736Z,11.7
2023-05-12T01:41:53.593Z,11.8
2023-05-12T01:43:00.436Z,11.7
2023-05-12T01:44:07.256Z,11.7
2023-05-12T01:45:14.102Z,11.7
2023-05-12T01:46:21.101Z,11.7
2023-05-12T01:47:27.991Z,11.6
2023-05-12T01:48:34.787Z,11.6
2023-05-12T01:49:41.578Z,11.6
2023-05-12T01:50:48.452Z,11.5
2023-05-12T01:51:55.334Z,11.5
2023-05-12T01:53:02.180Z,11.5
2023-05-12T01:54:08.967Z,11.4
2023-05-12T01:55:15.805Z,11.5
2023-05-12T01:56:22.713Z,11.4
2023-05-12T01:57:29.538Z,11.4
2023-05-12T01:58:36.419Z,11.5
2023-05-12T01:59:44.341Z,11.5
2023-05-12T02:00:51.142Z,11.4
2023-05-12T02:01:58.199Z,11.4
2023-05-12T02:03:05.150Z,11.4
2023-05-12T02:04:11.939Z,11.3
2023-05-12T02:05:18.812Z,11.4
2023-05-12T02:06:25.674Z,11.4
2023-05-12T02:07:32.643Z,11.4
2023-05-12T02:08:39.649Z,11.3
2023-05-12T02:09:46.511Z,11.3
2023-05-12T02:10:53.331Z,11.3
2023-05-12T02:12:10.308Z,11.2
2023-05-12T02:13:17.125Z,11.3
2023-05-12T02:14:23.948Z,11.3
2023-05-12T02:15:30.880Z,11.2
2023-05-12T02:16:37.903Z,11.1
2023-05-12T02:17:44.805Z,11.1
2023-05-12T02:18:51.575Z,11.1
2023-05-12T02:19:58.401Z,11.1
2023-05-12T02:21:05.232Z,11
2023-05-12T02:22:12.158Z,11
2023-05-12T02:23:20.343Z,11.1
2023-05-12T02:24:27.171Z,11.1
2023-05-12T02:25:34.014Z,11
2023-05-12T02:26:40.926Z,11
2023-05-12T02:27:47.742Z,11
2023-05-12T02:28:54.564Z,11.1
2023-05-12T02:30:01.558Z,11
2023-05-12T02:31:08.784Z,10.9
2023-05-12T02:32:15.650Z,10.9
2023-05-12T02:33:22.532Z,10.9
2023-05-12T02:34:29.365Z,10.9
2023-05-12T02:35:36.259Z,10.8
2023-05-12T02:36:43.156Z,10.8
2023-05-12T02:37:50.112Z,10.8
2023-05-12T02:38:56.978Z,10.8
2023-05-12T02:40:03.791Z,10.8
2023-05-12T02:41:11.027Z,10.8
2023-05-12T02:42:17.948Z,10.8
2023-05-12T02:43:24.792Z,10.7
2023-05-12T02:44:31.666Z,10.7
2023-05-12T02:45:39.336Z,10.8
2023-05-12T02:46:46.210Z,10.7
2023-05-12T02:47:53.102Z,10.7
2023-05-12T02:48:59.951Z,10.7
2023-05-12T02:50:07.011Z,10.7
2023-05-12T02:51:13.908Z,10.7
2023-05-12T02:52:20.806Z,10.6
2023-05-12T02:53:27.716Z,10.6
2023-05-12T02:54:34.610Z,10.6
2023-05-12T02:55:41.514Z,10.6
2023-05-12T02:56:48.342Z,10.6
2023-05-12T02:57:55.242Z,10.6
2023-05-12T02:59:02.092Z,10.6
2023-05-12T03:00:09.017Z,10.5
2023-05-12T03:01:16.072Z,10.4
2023-05-12T03:02:22.983Z,10.4
2023-05-12T03:03:29.930Z,10.4
2023-05-12T03:04:36.682Z,10.4
2023-05-12T03:05:43.685Z,10.3
2023-05-12T03:06:50.490Z,10.4
2023-05-12T03:07:57.367Z,10.3
2023-05-12T03:09:04.304Z,10.3
2023-05-12T03:10:11.170Z,10.3
2023-05-12T03:11:18.040Z,10.3
2023-05-12T03:12:24.923Z,10.4
2023-05-12T03:13:34.599Z,10.4
2023-05-12T03:14:41.435Z,10.4
2023-05-12T03:15:48.346Z,10.4
2023-05-12T03:16:55.225Z,10.2
2023-05-12T03:18:02.144Z,10.3
2023-05-12T03:19:09.006Z,10.2
2023-05-12T03:20:15.877Z,10.3
2023-05-12T03:21:28.563Z,10.3
2023-05-12T03:22:35.488Z,10.2
2023-05-12T03:23:42.318Z,10.3
2023-05-12T03:24:49.146Z,10.2
2023-05-12T03:25:55.994Z,10.2
2023-05-12T03:27:02.868Z,10.3
2023-05-12T03:28:09.700Z,10.2
2023-05-12T03:29:16.735Z,10.3
2023-05-12T03:30:23.616Z,10.3
2023-05-12T03:31:30.486Z,10.2
2023-05-12T03:32:37.241Z,10.2
2023-05-12T03:33:44.044Z,10.2
2023-05-12T03:34:50.945Z,10.2
2023-05-12T03:35:57.811Z,10.2
2023-05-12T03:37:04.663Z,10.2
2023-05-12T03:38:11.627Z,10.2
2023-05-12T03:39:18.516Z,10.2
2023-05-12T03:40:25.448Z,10.2
2023-05-12T03:41:32.498Z,10.2
2023-05-12T03:42:39.390Z,10.2
2023-05-12T03:43:46.291Z,10.2
2023-05-12T03:44:53.173Z,10.2
2023-05-12T03:46:00.154Z,10.2
2023-05-12T03:47:07.005Z,10.2
2023-05-12T03:48:13.918Z,10.1
2023-05-12T03:49:20.746Z,10.1
2023-05-12T03:50:27.593Z,10.1
2023-05-12T03:51:34.498Z,10.1
2023-05-12T03:52:41.437Z,10.1
2023-05-12T03:53:48.150Z,10
2023-05-12T03:54:54.995Z,10
2023-05-12T03:56:02.004Z,10.1
2023-05-12T03:57:08.942Z,10.1
2023-05-12T03:58:15.777Z,10.1
2023-05-12T03:59:22.689Z,10.1
2023-05-12T04:00:29.551Z,10.1
2023-05-12T04:01:36.513Z,10.1
2023-05-12T04:02:43.499Z,10
2023-05-12T04:03:50.525Z,10.1
2023-05-12T04:04:57.506Z,10.2
2023-05-12T04:06:04.463Z,10
2023-05-12T04:07:11.731Z,10.2
2023-05-12T04:08:18.660Z,10.2
2023-05-12T04:09:28.547Z,10.1
2023-05-12T04:10:35.501Z,10.1
2023-05-12T04:11:42.438Z,10.2
2023-05-12T04:12:49.397Z,10.1
2023-05-12T04:13:56.359Z,10.2
2023-05-12T04:15:03.359Z,10.3
2023-05-12T04:16:10.497Z,10.3
2023-05-12T04:17:17.414Z,10.3
2023-05-12T04:18:24.240Z,10.3
2023-05-12T04:19:32.211Z,10.2
2023-05-12T04:20:39.040Z,10.3
2023-05-12T04:21:45.864Z,10.4
2023-05-12T04:22:52.767Z,10.3
2023-05-12T04:24:06.476Z,10.4
2023-05-12T04:25:13.323Z,10.4
2023-05-12T04:26:20.224Z,10.4
2023-05-12T04:27:27.163Z,10.4
2023-05-12T04:28:54.541Z,10.4
2023-05-12T04:30:01.462Z,10.5
2023-05-12T04:31:08.634Z,10.5
2023-05-12T04:32:15.545Z,10.6
2023-05-12T04:33:22.401Z,10.5
2023-05-12T04:34:29.244Z,10.5
2023-05-12T04:35:36.108Z,10.5
2023-05-12T04:36:43.034Z,10.6
2023-05-12T04:37:49.903Z,10.6
2023-05-12T04:38:56.756Z,10.5
2023-05-12T04:40:03.553Z,10.6
2023-05-12T04:41:10.566Z,10.7
2023-05-12T04:42:17.448Z,10.7
2023-05-12T04:44:31.142Z,10.8
2023-05-12T04:45:37.991Z,10.8
2023-05-12T04:46:44.886Z,10.8
2023-05-12T04:47:51.849Z,10.9
2023-05-12T04:48:58.595Z,10.9
2023-05-12T04:50:05.427Z,10.9
2023-05-12T04:51:12.481Z,10.9
2023-05-12T04:52:19.506Z,10.9
2023-05-12T04:54:09.146Z,10.9
2023-05-12T04:55:16.034Z,10.9
2023-05-12T04:56:22.923Z,10.9
2023-05-12T04:57:29.746Z,10.9
2023-05-12T04:58:36.614Z,11
2023-05-12T04:59:43.472Z,11.1
2023-05-12T05:00:50.384Z,11.2
2023-05-12T05:01:57.230Z,11.1
2023-05-12T05:03:04.237Z,11.3
2023-05-12T05:04:11.004Z,11.2
2023-05-12T05:05:17.922Z,11.1
2023-05-12T05:06:24.740Z,11.2
2023-05-12T05:07:31.587Z,11.3
2023-05-12T05:08:38.439Z,11.3
2023-05-12T05:09:45.394Z,11.3
2023-05-12T05:10:52.194Z,11.4
2023-05-12T05:11:59.070Z,11.5
2023-05-12T05:13:05.914Z,11.5
2023-05-12T05:14:12.846Z,11.5
2023-05-12T05:15:20.151Z,11.5
2023-05-12T05:16:26.786Z,11.5
2023-05-12T05:17:33.583Z,11.6
2023-05-12T05:18:40.540Z,11.6
2023-05-12T05:19:55.815Z,11.6
2023-05-12T05:20:58.269Z,11.6
2023-05-12T05:22:01.178Z,11.6
2023-05-12T05:23:08.252Z,11.7
2023-05-12T05:24:15.114Z,11.8
2023-05-12T05:25:22.010Z,11.8
2023-05-12T05:26:28.898Z,11.9
2023-05-12T05:27:35.747Z,11.9
2023-05-12T05:28:42.648Z,12
2023-05-12T05:29:49.602Z,12
2023-05-12T05:30:58.907Z,12
2023-05-12T05:32:05.955Z,12
2023-05-12T05:33:12.874Z,12
2023-05-12T05:34:19.964Z,12.1
2023-05-12T05:35:26.591Z,12.1
2023-05-12T05:36:33.501Z,12.1
2023-05-12T05:37:40.375Z,12.2
2023-05-12T05:38:47.216Z,12.2
2023-05-12T05:39:54.050Z,12.2
2023-05-12T05:41:00.880Z,12.2
2023-05-12T05:42:07.941Z,12.3
2023-05-12T05:43:14.761Z,12.4
2023-05-12T05:44:21.565Z,12.3
2023-05-12T05:45:28.399Z,12.4
2023-05-12T05:46:35.361Z,12.4
2023-05-12T05:47:42.363Z,12.5
2023-05-12T05:48:49.116Z,12.6
2023-05-12T05:49:55.942Z,12.7
2023-05-12T05:51:02.735Z,12.7
2023-05-12T05:52:09.604Z,12.7
2023-05-12T05:53:16.475Z,12.8
2023-05-12T05:54:23.273Z,12.8
2023-05-12T05:55:30.147Z,12.9
2023-05-12T05:56:36.990Z,13
2023-05-12T05:57:43.824Z,13
2023-05-12T05:58:50.659Z,13
2023-05-12T05:59:57.647Z,13.1
2023-05-12T06:01:04.478Z,13.2
2023-05-12T06:02:11.321Z,13.2
2023-05-12T06:03:18.285Z,13.3
2023-05-12T06:04:25.091Z,13.4
2023-05-12T06:05:31.961Z,13.5
2023-05-12T06:06:38.833Z,13.5
2023-05-12T06:07:45.719Z,13.5
2023-05-12T06:08:52.595Z,13.7
2023-05-12T06:09:59.395Z,13.7
2023-05-12T06:11:06.286Z,13.8
2023-05-12T06:12:13.093Z,13.9
2023-05-12T06:13:20.014Z,13.9
2023-05-12T06:14:26.914Z,13.9
2023-05-12T06:15:35.768Z,14
2023-05-12T06:16:44.091Z,14.2
2023-05-12T06:17:50.880Z,14.3
2023-05-12T06:18:57.775Z,14.6
2023-05-12T06:20:04.624Z,14.7
2023-05-12T06:21:11.634Z,14.8
2023-05-12T06:22:18.431Z,14.9
2023-05-12T06:23:25.344Z,15
2023-05-12T06:24:32.198Z,15.1
2023-05-12T06:25:39.066Z,15.2
2023-05-12T06:26:45.893Z,15.4
2023-05-12T06:27:52.749Z,15.5
2023-05-12T06:28:59.595Z,15.5
2023-05-12T06:30:06.348Z,15.4
2023-05-12T06:31:13.497Z,15.5
2023-05-12T06:32:20.327Z,15.4
2023-05-12T06:33:27.168Z,15.6
2023-05-12T06:34:34.024Z,15.7
2023-05-12T06:35:40.944Z,15.7
2023-05-12T06:36:50.577Z,15.8
2023-05-12T06:37:57.400Z,16
2023-05-12T06:39:04.222Z,16.1
2023-05-12T06:40:11.148Z,16
2023-05-12T06:41:18.050Z,16.2
2023-05-12T06:42:24.971Z,16
2023-05-12T06:43:31.899Z,16.2
2023-05-12T06:44:40.648Z,16.2
2023-05-12T06:45:43.790Z,16.2
2023-05-12T06:46:50.710Z,16.2
2023-05-12T06:47:57.810Z,16.1
2023-05-12T06:49:04.528Z,16.5
2023-05-12T06:50:12.169Z,16.5
2023-05-12T06:51:19.054Z,16.5
2023-05-12T06:52:26.118Z,16.6
2023-05-12T06:53:32.855Z,16.4
2023-05-12T06:54:42.377Z,16.4
2023-05-12T06:55:49.207Z,16.5
2023-05-12T06:56:56.013Z,16.6
2023-05-12T06:58:02.852Z,16.7
2023-05-12T06:59:09.845Z,17
2023-05-12T07:00:18.186Z,17.1
2023-05-12T07:01:25.412Z,17.2
2023-05-12T07:02:32.230Z,16.9
2023-05-12T07:03:39.052Z,17
2023-05-12T07:04:45.866Z,17.2
2023-05-12T07:05:52.822Z,17.3
2023-05-12T07:06:59.759Z,17.4
2023-05-12T07:08:07.043Z,17.4
2023-05-12T07:09:14.122Z,17.7
2023-05-12T07:10:21.237Z,17.7
2023-05-12T07:11:28.340Z,17.5
2023-05-12T07:12:35.381Z,17.4
2023-05-12T07:13:42.443Z,17.7
2023-05-12T07:14:49.546Z,17.9
2023-05-12T07:15:56.715Z,18
2023-05-12T07:17:03.743Z,18.2
2023-05-12T07:18:10.825Z,17.9
2023-05-12T07:19:17.831Z,18
2023-05-12T07:20:24.981Z,18.2
2023-05-12T07:21:32.086Z,17.9
2023-05-12T07:22:39.236Z,18
2023-05-12T07:23:46.230Z,18.2
2023-05-12T07:24:53.429Z,18.1
2023-05-12T07:26:00.397Z,18.2
2023-05-12T07:27:07.583Z,18
2023-05-12T07:28:14.646Z,18.2
2023-05-12T07:29:21.772Z,18.3
2023-05-12T07:30:28.843Z,18
2023-05-12T07:31:35.901Z,18
2023-05-12T07:32:43.028Z,17.9
2023-05-12T07:34:14.080Z,18.2
2023-05-12T07:35:21.375Z,18.2
2023-05-12T07:36:28.438Z,18.4
2023-05-12T07:37:35.537Z,18.4
2023-05-12T07:38:43.148Z,18.6
2023-05-12T07:39:58.683Z,18.6
2023-05-12T07:41:06.010Z,18.8
2023-05-12T07:42:13.462Z,18.7
2023-05-12T07:43:20.562Z,18.5
2023-05-12T07:44:27.725Z,18.7
2023-05-12T07:45:39.727Z,18.7
2023-05-12T07:46:46.930Z,18.8
2023-05-12T07:47:54.082Z,19
2023-05-12T07:49:02.155Z,19
2023-05-12T07:50:09.389Z,18.9
2023-05-12T07:51:16.632Z,19
2023-05-12T07:52:23.863Z,19.1
2023-05-12T07:53:35.872Z,19.1
2023-05-12T07:54:43.008Z,19.1
2023-05-12T07:56:01.880Z,19.1
2023-05-12T07:57:18.795Z,19.1
2023-05-12T07:58:25.890Z,19
2023-05-12T07:59:32.909Z,18.8
2023-05-12T08:00:49.820Z,18.9
2023-05-12T08:02:11.511Z,18.9
2023-05-12T08:03:18.653Z,19.1
2023-05-12T08:04:31.612Z,19.2
2023-05-12T08:05:43.509Z,19.2
2023-05-12T08:06:50.644Z,19.5
2023-05-12T08:07:57.867Z,19.3
2023-05-12T08:09:04.924Z,19.5
2023-05-12T08:10:25.600Z,19.5
2023-05-12T08:11:32.683Z,19.3
2023-05-12T08:12:39.757Z,19.3
2023-05-12T08:13:46.808Z,19.3
2023-05-12T08:14:53.979Z,19.4
2023-05-12T08:16:01.145Z,19.5
2023-05-12T08:17:29.231Z,19.5
2023-05-12T08:18:34.842Z,19.6
2023-05-12T08:19:42.069Z,19.6
2023-05-12T08:20:49.100Z,19.5
2023-05-12T08:21:56.172Z,19.4
2023-05-12T08:23:07.470Z,19.4
2023-05-12T08:24:14.520Z,19.4
2023-05-12T08:25:21.846Z,19.4
2023-05-12T08:26:28.903Z,19.3
2023-05-12T08:27:36.080Z,19.3
2023-05-12T08:28:43.215Z,19.2
2023-05-12T08:29:50.383Z,19.2
2023-05-12T08:30:57.459Z,19.3
2023-05-12T08:32:21.860Z,19.4
2023-05-12T08:34:22.107Z,19.4
2023-05-12T08:35:29.298Z,20
2023-05-12T08:36:36.525Z,19.9
2023-05-12T08:37:43.601Z,20.1
2023-05-12T08:38:55.655Z,20.1
2023-05-12T08:40:02.880Z,20.3
2023-05-12T08:41:10.306Z,20.3
2023-05-12T08:42:22.399Z,20.2
2023-05-12T08:43:44.458Z,20.3
2023-05-12T08:44:54.347Z,20.3
2023-05-12T08:46:03.448Z,20.4
2023-05-12T08:47:10.462Z,20.6
2023-05-12T08:48:17.724Z,20.8
2023-05-12T08:49:24.901Z,20.6
2023-05-12T08:50:32.319Z,20.7
2023-05-12T08:51:39.320Z,20.9
2023-05-12T08:52:49.162Z,20.8
2023-05-12T08:53:56.236Z,20.7
2023-05-12T08:55:03.685Z,20.7
2023-05-12T08:57:26.451Z,20.5
2023-05-12T08:58:40.771Z,20.6
2023-05-12T08:59:56.282Z,20.6
2023-05-12T09:01:03.323Z,21
2023-05-12T09:02:11.596Z,21.1
2023-05-12T09:03:36.174Z,21.1
2023-05-12T09:04:54.371Z,21.1
2023-05-12T09:06:06.284Z,21.1
2023-05-12T09:07:19.240Z,21.1
2023-05-12T09:08:28.605Z,21
2023-05-12T09:09:35.733Z,20.9
2023-05-12T09:10:46.827Z,20.9
2023-05-12T09:11:53.908Z,21.1
2023-05-12T09:13:07.804Z,21.1
2023-05-12T09:14:26.179Z,21.1
2023-05-12T09:15:45.287Z,21.2
2023-05-12T09:17:08.821Z,21.2
2023-05-12T09:19:04.026Z,21.2
2023-05-12T09:20:15.265Z,21.3
2023-05-12T09:21:16.736Z,21.3
2023-05-12T09:22:23.823Z,21.4
2023-05-12T09:23:30.964Z,21.3
2023-05-12T09:24:38.461Z,21.4
2023-05-12T09:25:45.564Z,21.4
2023-05-12T09:27:17.835Z,21.5
2023-05-12T09:28:38.401Z,21.5
2023-05-12T09:30:27.084Z,21.5
2023-05-12T09:31:34.296Z,21.5
2023-05-12T09:32:41.264Z,21.5
2023-05-12T09:33:48.489Z,21.6
2023-05-12T09:34:55.564Z,21.6
2023-05-12T09:36:05.457Z,21.5
2023-05-12T09:37:14.584Z,21.4
2023-05-12T09:38:19.785Z,21.5
2023-05-12T09:39:26.828Z,21.6
2023-05-12T09:40:33.921Z,21.5
2023-05-12T09:41:40.987Z,21.5
2023-05-12T09:42:48.053Z,21.6
2023-05-12T09:43:55.021Z,21.6
2023-05-12T09:45:01.827Z,21.8
2023-05-12T09:46:11.536Z,21.9
2023-05-12T09:47:19.480Z,22
2023-05-12T09:48:41.893Z,22
2023-05-12T09:50:08.469Z,22.1
2023-05-12T09:51:15.294Z,22.1
2023-05-12T09:52:22.109Z,22.1
2023-05-12T09:53:29.082Z,22
2023-05-12T09:54:36.084Z,22.1
2023-05-12T09:55:42.988Z,22
2023-05-12T09:56:50.953Z,22.1
2023-05-12T09:58:00.599Z,22.2
2023-05-12T09:59:10.397Z,22.4
2023-05-12T10:00:33.063Z,22.4
2023-05-12T10:01:24.681Z,22.5
2023-05-12T10:02:31.448Z,22.3
2023-05-12T10:03:38.175Z,22
2023-05-12T10:04:45.010Z,22
2023-05-12T10:06:17.026Z,22.1
2023-05-12T10:07:23.812Z,22
2023-05-12T10:08:30.736Z,22
2023-05-12T10:09:38.706Z,22.1
2023-05-12T10:10:45.509Z,21.8
2023-05-12T10:11:54.336Z,21.9
2023-05-12T10:13:42.964Z,21.9
2023-05-12T10:14:49.882Z,21.8
2023-05-12T10:16:02.794Z,21.9
2023-05-12T10:17:15.629Z,21.9
2023-05-12T10:18:28.414Z,21.9
2023-05-12T10:19:43.061Z,22
2023-05-12T10:20:50.018Z,22.4
2023-05-12T10:22:09.244Z,22.4
2023-05-12T10:23:23.735Z,22.5
2023-05-12T10:24:41.329Z,22.5
2023-05-12T10:25:48.232Z,22.2
2023-05-12T10:26:55.020Z,22.2
2023-05-12T10:28:01.876Z,22.3
2023-05-12T10:29:16.205Z,22.3
2023-05-12T10:30:23.080Z,22
2023-05-12T10:31:30.193Z,21.7
2023-05-12T10:32:36.925Z,21.7
2023-05-12T10:33:43.890Z,21.7
2023-05-12T10:34:58.454Z,21.6
2023-05-12T10:36:10.869Z,21.7
2023-05-12T10:37:45.929Z,21.7
2023-05-12T10:38:54.225Z,21.7
2023-05-12T10:40:01.224Z,21.7
2023-05-12T10:41:08.320Z,22
2023-05-12T10:42:32.512Z,22
2023-05-12T10:43:41.995Z,22
2023-05-12T10:44:48.792Z,21.8
2023-05-12T10:45:55.726Z,21.5
2023-05-12T10:47:13.215Z,21.8
2023-05-12T10:48:19.495Z,21.5
2023-05-12T10:49:26.589Z,21.5
2023-05-12T10:50:38.462Z,21.7
2023-05-12T10:51:45.378Z,21.9
2023-05-12T10:52:52.317Z,22
2023-05-12T10:53:59.219Z,21.6
2023-05-12T10:55:06.146Z,21.8
2023-05-12T10:56:13.120Z,22
2023-05-12T10:57:19.882Z,21.7
2023-05-12T10:58:27.014Z,21.5
2023-05-12T10:59:33.813Z,21.4
2023-05-12T11:01:01.939Z,21.3
2023-05-12T11:02:12.029Z,21.3
2023-05-12T11:03:29.008Z,21.3
2023-05-12T11:04:34.760Z,21
2023-05-12T11:05:52.062Z,21
2023-05-12T11:07:01.652Z,20.9
2023-05-12T11:08:09.323Z,20.9
2023-05-12T11:09:15.750Z,20.9
2023-05-12T11:10:22.309Z,20.9
2023-05-12T11:11:29.657Z,21
2023-05-12T11:12:36.157Z,20.9
2023-05-12T11:13:42.667Z,21
2023-05-12T11:14:49.678Z,21.1
2023-05-12T11:15:56.640Z,21.3
2023-05-12T11:17:03.468Z,21.3
2023-05-12T11:18:10.378Z,21.2
2023-05-12T11:19:17.137Z,21.2
2023-05-12T11:20:23.985Z,21.1
2023-05-12T11:21:31.020Z,21.2
2023-05-12T11:22:38.126Z,21.1
2023-05-12T11:23:45.067Z,20.9
2023-05-12T11:24:52.097Z,20.9
2023-05-12T11:25:58.953Z,20.8
2023-05-12T11:27:05.895Z,20.7
2023-05-12T11:28:15.337Z,20.8
2023-05-12T11:29:22.248Z,20.8
2023-05-12T11:30:29.092Z,21
2023-05-12T11:31:36.004Z,20.9
2023-05-12T11:32:42.929Z,21
2023-05-12T11:33:56.035Z,21
2023-05-12T11:35:06.903Z,21.1
2023-05-12T11:36:21.631Z,21.1
2023-05-12T11:37:27.203Z,21
2023-05-12T11:38:34.000Z,21.1
2023-05-12T11:39:41.011Z,21.2
2023-05-12T11:40:47.841Z,21.1
2023-05-12T11:42:02.295Z,21.1
2023-05-12T11:43:06.699Z,20.9
2023-05-12T11:44:13.489Z,21
2023-05-12T11:45:20.509Z,21
2023-05-12T11:46:27.264Z,20.9
2023-05-12T11:47:34.178Z,21
2023-05-12T11:48:40.988Z,20.8
2023-05-12T11:49:47.801Z,20.8
2023-05-12T11:50:54.577Z,20.7
2023-05-12T11:52:01.499Z,20.7
2023-05-12T11:53:08.305Z,20.7
2023-05-12T11:54:18.172Z,20.6
2023-05-12T11:55:25.024Z,20.7
2023-05-12T11:56:31.837Z,20.3
2023-05-12T11:57:38.663Z,20.4
2023-05-12T11:58:45.547Z,20.4
2023-05-12T11:59:55.076Z,20.4
2023-05-12T12:01:01.857Z,20.4
2023-05-12T12:02:11.304Z,20.5
2023-05-12T12:03:18.228Z,20.4
2023-05-12T12:04:24.984Z,20.6
2023-05-12T12:05:36.907Z,20.7
2023-05-12T12:06:43.680Z,21
2023-05-12T12:07:50.649Z,21.2
2023-05-12T12:08:57.481Z,21.4
2023-05-12T12:10:04.249Z,21.6
2023-05-12T12:11:13.925Z,21.6
2023-05-12T12:12:20.783Z,21.6
2023-05-12T12:13:35.007Z,21.6
2023-05-12T12:14:41.825Z,21.4
2023-05-12T12:15:48.690Z,21.6
2023-05-12T12:16:55.684Z,21.4
2023-05-12T12:18:02.616Z,21.3
2023-05-12T12:19:09.493Z,21.1
2023-05-12T12:20:16.240Z,21.1
2023-05-12T12:21:23.094Z,21.2
2023-05-12T12:22:29.916Z,21.2
2023-05-12T12:23:47.580Z,21.1
2023-05-12T12:24:43.655Z,21
2023-05-12T12:25:50.496Z,21.1
2023-05-12T12:26:57.466Z,21.2
2023-05-12T12:28:04.334Z,21.3
2023-05-12T12:29:11.169Z,21.4
2023-05-12T12:30:17.959Z,21.5
2023-05-12T12:31:24.876Z,21.5
2023-05-12T12:32:31.819Z,21.7
2023-05-12T12:33:38.656Z,21.6
2023-05-12T12:34:45.649Z,22
2023-05-12T12:35:52.607Z,21.9
2023-05-12T12:36:59.563Z,21.9
2023-05-12T12:38:06.425Z,22.1
2023-05-12T12:39:13.277Z,22
2023-05-12T12:40:20.396Z,22.1
2023-05-12T12:41:27.272Z,22
2023-05-12T12:42:34.393Z,22
2023-05-12T12:43:41.491Z,22
2023-05-12T12:44:48.588Z,22
2023-05-12T12:45:55.593Z,22
2023-05-12T12:47:02.602Z,22
2023-05-12T12:48:10.050Z,22
2023-05-12T12:49:17.609Z,22.1
2023-05-12T12:50:25.829Z,22.1
2023-05-12T12:51:42.358Z,22.1
2023-05-12T12:52:39.359Z,22
2023-05-12T12:53:46.323Z,22
2023-05-12T12:54:53.638Z,21.8
2023-05-12T12:56:00.814Z,21.8
2023-05-12T12:57:07.824Z,21.7
2023-05-12T12:58:14.784Z,21.7
2023-05-12T12:59:21.846Z,21.7
2023-05-12T13:00:29.404Z,21.8
2023-05-12T13:01:36.708Z,22
2023-05-12T13:02:43.894Z,22.1
2023-05-12T13:03:51.080Z,22.2
2023-05-12T13:04:58.102Z,22.1
2023-05-12T13:06:12.648Z,22.1
2023-05-12T13:07:19.604Z,22.1
2023-05-12T13:08:26.703Z,22.2
2023-05-12T13:09:34.340Z,22.2
2023-05-12T13:10:41.261Z,22.3
2023-05-12T13:11:48.198Z,22.3
2023-05-12T13:12:55.113Z,22
2023-05-12T13:14:02.065Z,22.1
2023-05-12T13:15:09.142Z,22.3
2023-05-12T13:16:16.107Z,22.4
2023-05-12T13:17:26.148Z,22.2
2023-05-12T13:18:33.097Z,22
2023-05-12T13:19:40.072Z,21.9
2023-05-12T13:20:50.893Z,21.9
2023-05-12T13:22:01.544Z,21.9
2023-05-12T13:23:09.569Z,21.9
2023-05-12T13:24:16.542Z,21.8
2023-05-12T13:25:23.803Z,21.6
2023-05-12T13:26:30.664Z,21.6
2023-05-12T13:27:37.620Z,21.6
2023-05-12T13:28:44.688Z,21.8
2023-05-12T13:29:52.466Z,21.7
2023-05-12T13:30:59.578Z,21.8
2023-05-12T13:32:07.002Z,21.9
2023-05-12T13:33:14.278Z,21.8
2023-05-12T13:34:21.470Z,21.9
2023-05-12T13:35:28.534Z,22
2023-05-12T13:36:36.339Z,22
2023-05-12T13:37:46.211Z,22
2023-05-12T13:38:53.423Z,21.9
2023-05-12T13:40:00.426Z,21.9
2023-05-12T13:41:07.653Z,21.9
2023-05-12T13:42:15.317Z,21.9
2023-05-12T13:43:22.365Z,21.9
2023-05-12T13:44:29.417Z,21.8
2023-05-12T13:45:37.476Z,21.6
2023-05-12T13:46:44.907Z,21.6
2023-05-12T13:47:51.987Z,21.5
2023-05-12T13:48:59.266Z,21.5
2023-05-12T13:50:06.427Z,21.5
2023-05-12T13:51:13.609Z,21.5
2023-05-12T13:52:22.822Z,21.5
2023-05-12T13:53:33.363Z,21.5
2023-05-12T13:54:40.426Z,21.3
2023-05-12T13:55:47.564Z,21.4
2023-05-12T13:56:54.521Z,21.3
2023-05-12T13:58:04.675Z,21.2
2023-05-12T13:59:11.678Z,21.2
2023-05-12T14:00:21.305Z,21.2
2023-05-12T14:01:28.400Z,21.3
2023-05-12T14:02:35.384Z,21.4
2023-05-12T14:03:42.992Z,21.3
2023-05-12T14:04:52.912Z,21.1
2023-05-12T14:05:59.869Z,20.9
2023-05-12T14:07:08.512Z,20.9
2023-05-12T14:08:14.415Z,20.9
2023-05-12T14:09:21.865Z,20.7
2023-05-12T14:10:28.890Z,20.7
2023-05-12T14:11:38.894Z,20.7
2023-05-12T14:12:46.387Z,20.9
2023-05-12T14:13:53.529Z,20.8
2023-05-12T14:15:12.191Z,20.7
2023-05-12T14:16:21.673Z,20.7
2023-05-12T14:17:28.742Z,20.8
2023-05-12T14:18:35.831Z,20.7
2023-05-12T14:19:43.220Z,20.6
2023-05-12T14:20:50.302Z,20.6
2023-05-12T14:21:57.327Z,20.6
2023-05-12T14:23:04.324Z,20.5
2023-05-12T14:24:11.332Z,20.4
2023-05-12T14:25:18.724Z,20.3
2023-05-12T14:26:25.574Z,20.3
2023-05-12T14:27:32.728Z,20.4
2023-05-12T14:28:39.854Z,20.4
2023-05-12T14:29:47.922Z,20.4
2023-05-12T14:30:56.196Z,20.4
2023-05-12T14:32:03.368Z,20.3
2023-05-12T14:33:10.419Z,20.3
2023-05-12T14:34:17.420Z,20.4
2023-05-12T14:35:24.376Z,20.3
2023-05-12T14:36:34.246Z,20.4
2023-05-12T14:37:41.277Z,20.4
2023-05-12T14:38:48.424Z,20.5
2023-05-12T14:39:55.452Z,20.5
2023-05-12T14:41:02.596Z,20.4
2023-05-12T14:42:09.578Z,20.4
2023-05-12T14:43:16.491Z,20.6
2023-05-12T14:44:23.484Z,20.6
2023-05-12T14:45:33.568Z,20.4
2023-05-12T14:46:40.620Z,20.4
2023-05-12T14:47:47.821Z,20.4
2023-05-12T14:48:54.823Z,20.5
2023-05-12T14:50:01.800Z,20.4
2023-05-12T14:51:09.027Z,20.5
2023-05-12T14:52:16.773Z,20.5
2023-05-12T14:53:23.899Z,20.5
2023-05-12T14:54:31.033Z,20.4
2023-05-12T14:55:41.197Z,20.4
2023-05-12T14:56:48.194Z,20.4
2023-05-12T14:57:55.455Z,20.4
2023-05-12T14:59:05.307Z,20.5
2023-05-12T15:00:12.490Z,20.5
2023-05-12T15:01:19.770Z,20.4
2023-05-12T15:02:26.730Z,20.5
2023-05-12T15:03:35.168Z,20.4
2023-05-12T15:04:45.026Z,20.5
2023-05-12T15:06:05.400Z,20.5
2023-05-12T15:07:00.086Z,20.5
2023-05-12T15:08:07.383Z,20.5
2023-05-12T15:09:14.646Z,20.5
2023-05-12T15:10:24.587Z,20.5
2023-05-12T15:11:31.616Z,20.4
2023-05-12T15:12:38.695Z,20.3
2023-05-12T15:13:45.754Z,20.2
2023-05-12T15:14:53.456Z,20.3
2023-05-12T15:16:03.240Z,20.3
2023-05-12T15:17:11.337Z,20.3
2023-05-12T15:18:19.068Z,20.2
2023-05-12T15:19:26.298Z,20.2